createdAt,value
2019-03-19T00:01:29.978Z,3.34
2019-03-19T00:03:57.653Z,3.38
2019-03-19T00:06:44.097Z,3.32
2019-03-19T00:09:30.486Z,3.32
2019-03-19T00:12:16.924Z,3.35
2019-03-19T00:15:03.582Z,3.40
2019-03-19T00:17:31.393Z,3.41
2019-03-19T00:19:59.043Z,3.41
2019-03-19T00:22:26.651Z,3.42
2019-03-19T00:25:13.081Z,3.40
2019-03-19T00:27:40.818Z,3.40
2019-03-19T00:30:27.535Z,3.37
2019-03-19T00:33:13.951Z,3.31
2019-03-19T00:36:00.600Z,3.25
2019-03-19T00:38:47.007Z,3.17
2019-03-19T00:46:32.536Z,3.03
2019-03-19T00:49:18.967Z,3.04
2019-03-19T00:51:46.521Z,3.07
2019-03-19T00:54:33.225Z,3.08
2019-03-19T00:57:00.984Z,3.08
2019-03-19T00:59:47.690Z,3.14
2019-03-19T01:02:34.409Z,3.17
2019-03-19T01:05:21.088Z,3.15
2019-03-19T01:08:07.917Z,3.18
2019-03-19T01:10:35.576Z,3.18
2019-03-19T01:13:22.019Z,3.21
2019-03-19T01:15:50.149Z,3.21
2019-03-19T01:18:36.562Z,3.23
2019-03-19T01:24:09.440Z,3.19
2019-03-19T01:26:55.800Z,3.19
2019-03-19T01:29:42.210Z,3.10
2019-03-19T01:32:09.806Z,3.07
2019-03-19T01:34:56.534Z,3.04
2019-03-19T01:37:24.153Z,3.04
2019-03-19T01:40:10.870Z,2.80
2019-03-19T01:42:38.515Z,2.80
2019-03-19T01:45:25.117Z,2.63
2019-03-19T01:47:53.237Z,2.63
2019-03-19T01:50:20.985Z,2.63
2019-03-19T01:52:48.763Z,2.68
2019-03-19T01:55:35.204Z,2.74
2019-03-19T01:58:21.887Z,2.69
2019-03-19T02:00:49.634Z,2.59
2019-03-19T02:03:36.421Z,2.46
2019-03-19T02:06:05.646Z,2.46
2019-03-19T02:08:52.072Z,2.15
2019-03-19T02:11:19.672Z,2.15
2019-03-19T02:14:06.135Z,2.11
2019-03-19T02:16:33.757Z,2.11
2019-03-19T02:19:20.438Z,2.03
2019-03-19T02:22:06.894Z,2.03
2019-03-19T02:24:53.598Z,2.03
2019-03-19T02:30:26.506Z,1.99
2019-03-19T02:32:54.140Z,1.99
2019-03-19T02:35:40.826Z,1.87
2019-03-19T02:38:27.235Z,1.79
2019-03-19T02:41:13.936Z,1.69
2019-03-19T02:44:00.381Z,1.61
2019-03-19T02:46:47.061Z,1.53
2019-03-19T02:49:33.493Z,1.44
2019-03-19T02:52:20.238Z,1.38
2019-03-19T02:57:40.086Z,1.28
2019-03-19T03:35:50.984Z,0.82
2019-03-19T03:38:37.611Z,0.83
2019-03-19T03:41:24.061Z,0.80
2019-03-19T03:44:10.776Z,0.82
2019-03-19T03:52:03.618Z,0.85
2019-03-19T03:57:38.408Z,0.86
2019-03-19T04:00:45.694Z,0.84
2019-03-19T04:03:34.209Z,0.84
2019-03-19T04:06:10.088Z,0.73
2019-03-19T04:11:42.955Z,0.74
2019-03-19T04:14:29.606Z,0.80
2019-03-19T04:19:49.535Z,0.93
2019-03-19T04:25:22.471Z,0.98
2019-03-19T04:30:42.094Z,0.91
2019-03-19T04:38:47.611Z,0.81
2019-03-19T04:41:15.406Z,0.77
2019-03-19T04:44:13.781Z,0.73
2019-03-19T04:46:49.887Z,0.72
2019-03-19T04:51:51.207Z,0.69
2019-03-19T04:54:37.583Z,0.60
2019-03-19T04:57:27.039Z,0.56
2019-03-19T05:00:12.404Z,0.53
2019-03-19T05:02:58.798Z,0.50
2019-03-19T05:08:17.959Z,0.45
2019-03-19T05:11:04.385Z,0.40
2019-03-19T05:16:18.814Z,0.34
2019-03-19T05:21:52.275Z,0.31
2019-03-19T05:24:38.643Z,0.29
2019-03-19T05:32:30.813Z,0.25
2019-03-19T05:35:17.570Z,0.24
2019-03-19T05:38:04.008Z,0.24
2019-03-19T05:43:36.925Z,0.21
2019-03-19T05:48:56.829Z,0.21
2019-03-19T05:51:43.238Z,0.25
2019-03-19T05:54:29.710Z,0.25
2019-03-19T05:57:16.116Z,0.27
2019-03-19T06:00:02.575Z,0.27
2019-03-19T06:02:49.060Z,0.36
2019-03-19T06:05:35.483Z,0.36
2019-03-19T06:08:03.296Z,0.42
2019-03-19T06:10:49.746Z,0.52
2019-03-19T06:13:17.568Z,0.52
2019-03-19T06:16:04.023Z,0.57
2019-03-19T06:18:35.285Z,0.67
2019-03-19T06:21:42.420Z,0.72
2019-03-19T06:23:49.375Z,0.72
2019-03-19T06:26:35.781Z,0.81
2019-03-19T06:31:55.260Z,1.23
2019-03-19T06:34:41.701Z,1.43
2019-03-19T06:37:28.109Z,1.60
2019-03-19T06:39:56.392Z,1.73
2019-03-19T06:42:24.056Z,1.80
2019-03-19T06:44:53.748Z,1.84
2019-03-19T06:47:21.767Z,1.91
2019-03-19T06:49:50.528Z,1.96
2019-03-19T06:52:18.604Z,2.00
2019-03-19T06:54:46.315Z,2.02
2019-03-19T06:57:14.084Z,2.06
2019-03-19T06:59:42.063Z,2.16
2019-03-19T07:02:10.167Z,2.16
2019-03-19T07:04:37.864Z,2.48
2019-03-19T07:07:09.418Z,2.68
2019-03-19T07:09:37.071Z,2.86
2019-03-19T07:12:05.032Z,3.08
2019-03-19T07:14:35.384Z,3.22
2019-03-19T07:17:03.146Z,3.36
2019-03-19T07:19:31.125Z,3.36
2019-03-19T07:22:00.547Z,3.62
2019-03-19T07:24:29.203Z,3.62
2019-03-19T07:27:04.072Z,3.84
2019-03-19T07:29:31.797Z,3.93
2019-03-19T07:32:00.576Z,4.02
2019-03-19T07:34:28.631Z,4.10
2019-03-19T07:36:56.373Z,4.17
2019-03-19T07:39:24.069Z,4.24
2019-03-19T07:41:52.236Z,4.33
2019-03-19T07:44:19.878Z,4.41
2019-03-19T07:46:47.655Z,4.41
2019-03-19T07:49:18.343Z,4.54
2019-03-19T07:51:46.087Z,4.64
2019-03-19T07:54:13.678Z,4.98
2019-03-19T07:56:44.599Z,5.23
2019-03-19T07:59:13.659Z,5.23
2019-03-19T08:01:43.796Z,5.70
2019-03-19T08:04:12.042Z,5.93
2019-03-19T08:06:39.752Z,6.15
2019-03-19T08:09:07.434Z,6.15
2019-03-19T08:11:37.905Z,6.36
2019-03-19T08:14:12.668Z,6.57
2019-03-19T08:16:40.662Z,6.73
2019-03-19T08:19:19.411Z,7.03
2019-03-19T08:21:47.323Z,7.03
2019-03-19T08:24:18.991Z,7.17
2019-03-19T08:26:46.432Z,7.26
2019-03-19T08:29:14.149Z,7.31
2019-03-19T08:31:43.834Z,7.65
2019-03-19T08:34:12.658Z,7.65
2019-03-19T08:36:40.308Z,7.89
2019-03-19T08:39:10.119Z,7.89
2019-03-19T08:41:38.142Z,7.96
2019-03-19T08:44:06.304Z,7.96
2019-03-19T08:46:34.590Z,8.19
2019-03-19T08:49:02.252Z,8.19
2019-03-19T08:51:31.524Z,8.44
2019-03-19T08:53:59.145Z,9.04
2019-03-19T08:56:27.854Z,9.04
2019-03-19T08:59:05.547Z,8.67
2019-03-19T09:01:29.915Z,8.67
2019-03-19T09:03:59.631Z,8.23
2019-03-19T09:06:29.298Z,8.23
2019-03-19T09:08:57.999Z,7.99
2019-03-19T09:11:28.844Z,8.81
2019-03-19T09:13:59.576Z,9.34
2019-03-19T09:16:30.046Z,9.81
2019-03-19T09:18:57.735Z,10.32
2019-03-19T09:21:25.976Z,10.80
2019-03-19T09:23:55.748Z,10.80
2019-03-19T09:26:24.591Z,11.74
2019-03-19T09:28:54.126Z,11.74
2019-03-19T09:31:22.497Z,12.29
2019-03-19T09:33:54.111Z,12.87
2019-03-19T09:36:28.501Z,13.13
2019-03-19T09:38:57.067Z,13.34
2019-03-19T09:41:25.070Z,13.34
2019-03-19T09:43:53.614Z,13.21
2019-03-19T09:46:26.069Z,13.21
2019-03-19T09:48:53.875Z,12.47
2019-03-19T09:51:21.563Z,12.47
2019-03-19T09:53:49.273Z,11.28
2019-03-19T09:56:19.535Z,11.28
2019-03-19T09:58:47.236Z,11.31
2019-03-19T10:01:14.982Z,11.87
2019-03-19T10:03:43.139Z,11.87
2019-03-19T10:06:16.880Z,13.41
2019-03-19T10:08:40.286Z,14.11
2019-03-19T10:11:08.361Z,14.11
2019-03-19T10:13:36.078Z,14.88
2019-03-19T10:16:03.799Z,16.47
2019-03-19T10:18:34.776Z,17.07
2019-03-19T10:21:02.467Z,16.90
2019-03-19T10:23:30.198Z,15.81
2019-03-19T10:25:59.408Z,15.75
2019-03-19T10:28:27.128Z,15.75
2019-03-19T10:30:54.836Z,16.28
2019-03-19T10:33:23.780Z,17.28
2019-03-19T10:35:51.959Z,16.56
2019-03-19T10:38:19.631Z,16.18
2019-03-19T10:40:47.367Z,16.74
2019-03-19T10:43:15.046Z,16.74
2019-03-19T10:45:46.648Z,18.53
2019-03-19T10:48:15.593Z,18.53
2019-03-19T10:50:43.267Z,18.66
2019-03-19T10:53:11.393Z,16.63
2019-03-19T10:55:42.549Z,16.63
2019-03-19T10:58:11.447Z,15.78
2019-03-19T11:00:39.565Z,14.91
2019-03-19T11:03:07.312Z,14.91
2019-03-19T11:05:35.352Z,14.90
2019-03-19T11:08:03.410Z,15.35
2019-03-19T11:10:34.174Z,15.35
2019-03-19T11:13:01.879Z,15.95
2019-03-19T11:15:32.322Z,17.46
2019-03-19T11:18:00.068Z,18.68
2019-03-19T11:20:27.775Z,18.68
2019-03-19T11:22:55.969Z,19.65
2019-03-19T11:25:23.639Z,21.31
2019-03-19T11:27:51.335Z,21.31
2019-03-19T11:30:22.525Z,21.54
2019-03-19T11:32:50.232Z,22.03
2019-03-19T11:35:17.977Z,22.34
2019-03-19T11:37:48.759Z,21.55
2019-03-19T11:40:16.512Z,20.11
2019-03-19T11:42:44.255Z,19.16
2019-03-19T11:45:17.982Z,19.83
2019-03-19T11:47:47.874Z,18.21
2019-03-19T11:50:15.562Z,18.33
2019-03-19T11:52:46.177Z,18.33
2019-03-19T11:55:13.949Z,20.26
2019-03-19T11:57:43.910Z,21.19
2019-03-19T12:00:11.921Z,21.19
2019-03-19T12:02:43.263Z,22.52
2019-03-19T12:05:12.893Z,22.99
2019-03-19T12:07:41.064Z,23.34
2019-03-19T12:10:08.847Z,23.34
2019-03-19T12:12:36.544Z,23.65
2019-03-19T12:15:04.726Z,23.37
2019-03-19T12:17:32.491Z,23.37
2019-03-19T12:20:00.195Z,23.56
2019-03-19T12:22:30.919Z,23.67
2019-03-19T12:25:01.435Z,23.67
2019-03-19T12:27:32.552Z,22.83
2019-03-19T12:30:00.342Z,20.73
2019-03-19T12:32:27.987Z,18.90
2019-03-19T12:34:56.849Z,18.91
2019-03-19T12:37:24.580Z,19.47
2019-03-19T12:39:52.244Z,19.16
2019-03-19T12:42:20.481Z,19.68
2019-03-19T12:44:48.139Z,19.87
2019-03-19T12:47:22.337Z,20.40
2019-03-19T12:49:50.384Z,20.37
2019-03-19T12:52:22.494Z,20.37
2019-03-19T12:54:51.293Z,20.05
2019-03-19T12:57:19.359Z,19.20
2019-03-19T12:59:51.099Z,19.20
2019-03-19T13:02:16.394Z,17.75
2019-03-19T13:04:44.585Z,16.91
2019-03-19T13:07:14.852Z,16.91
2019-03-19T13:09:44.906Z,15.87
2019-03-19T13:12:12.971Z,14.96
2019-03-19T13:14:40.944Z,15.11
2019-03-19T13:17:08.658Z,15.28
2019-03-19T13:19:36.861Z,15.28
2019-03-19T13:22:07.118Z,15.29
2019-03-19T13:24:34.836Z,14.90
2019-03-19T13:27:04.028Z,14.38
2019-03-19T13:29:31.752Z,13.94
2019-03-19T13:32:01.357Z,13.62
2019-03-19T13:37:03.266Z,12.90
2019-03-19T13:39:49.676Z,12.93
2019-03-19T13:45:08.730Z,13.78
2019-03-19T13:50:30.597Z,13.94
2019-03-19T13:53:31.006Z,13.74
2019-03-19T13:56:07.973Z,13.52
2019-03-19T13:58:37.824Z,13.32
2019-03-19T14:01:24.292Z,13.10
2019-03-19T14:03:52.202Z,13.01
2019-03-19T14:06:41.209Z,13.00
2019-03-19T14:12:00.797Z,12.75
2019-03-19T14:14:30.831Z,12.75
2019-03-19T14:16:58.670Z,12.66
2019-03-19T14:19:45.077Z,12.65
2019-03-19T14:25:04.260Z,12.71
2019-03-19T14:27:50.683Z,12.77
2019-03-19T14:30:37.168Z,12.77
2019-03-19T14:33:05.923Z,12.75
2019-03-19T14:35:54.897Z,12.75
2019-03-19T14:41:27.787Z,12.77
2019-03-19T14:46:47.176Z,12.77
2019-03-19T14:52:08.195Z,12.78
2019-03-19T14:57:41.098Z,12.66
2019-03-19T15:03:06.554Z,13.99
2019-03-19T15:08:41.464Z,15.07
2019-03-19T15:11:09.707Z,15.07
2019-03-19T15:13:56.151Z,14.29
2019-03-19T15:16:42.593Z,13.84
2019-03-19T15:19:28.982Z,13.84
2019-03-19T15:22:15.396Z,13.42
2019-03-19T15:25:01.842Z,13.10
2019-03-19T15:30:25.834Z,12.61
2019-03-19T15:33:12.264Z,14.32
2019-03-19T15:35:58.691Z,14.32
2019-03-19T15:41:18.442Z,16.41
2019-03-19T15:43:49.354Z,16.75
2019-03-19T15:46:15.609Z,16.04
2019-03-19T15:48:46.356Z,15.38
2019-03-19T15:51:13.945Z,15.38
2019-03-19T15:53:42.027Z,14.73
2019-03-19T15:56:09.698Z,13.79
2019-03-19T15:58:39.053Z,13.79
2019-03-19T16:01:21.185Z,13.15
2019-03-19T16:03:50.958Z,13.15
2019-03-19T16:06:33.032Z,12.88
2019-03-19T16:08:48.341Z,12.68
2019-03-19T16:11:15.958Z,12.49
2019-03-19T16:13:45.863Z,12.14
2019-03-19T16:16:13.200Z,12.14
2019-03-19T16:18:41.092Z,11.96
2019-03-19T16:21:09.099Z,11.82
2019-03-19T16:23:36.742Z,11.60
2019-03-19T16:26:08.594Z,11.52
2019-03-19T16:28:44.602Z,11.42
2019-03-19T16:31:13.853Z,11.42
2019-03-19T16:33:42.404Z,11.28
2019-03-19T16:36:10.294Z,11.20
2019-03-19T16:38:39.365Z,11.15
2019-03-19T16:41:06.984Z,11.15
2019-03-19T16:43:35.059Z,11.10
2019-03-19T16:46:02.693Z,11.05
2019-03-19T16:48:30.283Z,10.91
2019-03-19T16:50:58.242Z,10.91
2019-03-19T16:53:25.889Z,10.73
2019-03-19T16:55:55.772Z,10.73
2019-03-19T16:58:25.870Z,10.56
2019-03-19T17:00:53.643Z,10.56
2019-03-19T17:03:21.342Z,10.45
2019-03-19T17:05:50.310Z,10.20
2019-03-19T17:08:21.046Z,10.20
2019-03-19T17:10:48.681Z,9.96
2019-03-19T17:13:19.508Z,9.96
2019-03-19T17:15:48.485Z,9.75
2019-03-19T17:18:19.170Z,9.61
2019-03-19T17:20:48.920Z,9.61
2019-03-19T17:23:16.571Z,9.32
2019-03-19T17:25:44.205Z,9.32
2019-03-19T17:28:21.914Z,9.16
2019-03-19T17:30:44.038Z,8.87
2019-03-19T17:33:11.709Z,8.87
2019-03-19T17:35:39.935Z,8.58
2019-03-19T17:38:14.079Z,8.58
2019-03-19T17:40:41.710Z,8.34
2019-03-19T17:43:08.374Z,8.34
2019-03-19T17:45:36.961Z,8.04
2019-03-19T17:48:15.723Z,8.04
2019-03-19T17:50:37.137Z,7.91
2019-03-19T17:53:07.150Z,7.69
2019-03-19T17:55:35.186Z,7.58
2019-03-19T17:58:04.846Z,7.58
2019-03-19T18:00:35.205Z,7.38
2019-03-19T18:03:03.256Z,7.31
2019-03-19T18:05:33.661Z,7.31
2019-03-19T18:08:01.386Z,7.25
2019-03-19T18:10:29.265Z,7.19
2019-03-19T18:12:59.194Z,7.20
2019-03-19T18:15:44.681Z,7.27
2019-03-19T18:18:21.249Z,7.27
2019-03-19T18:20:53.055Z,7.41
2019-03-19T18:23:20.449Z,7.41
2019-03-19T18:25:51.056Z,7.45
2019-03-19T18:28:18.760Z,7.43
2019-03-19T18:30:49.287Z,7.44
2019-03-19T18:33:17.249Z,7.44
2019-03-19T18:35:44.923Z,7.43
2019-03-19T18:38:12.545Z,7.43
2019-03-19T18:40:40.630Z,7.36
2019-03-19T18:43:09.883Z,7.30
2019-03-19T18:45:37.601Z,7.30
2019-03-19T18:48:08.528Z,7.24
2019-03-19T18:50:36.189Z,7.04
2019-03-19T18:53:03.820Z,6.92
2019-03-19T18:55:31.821Z,6.92
2019-03-19T18:58:01.365Z,6.72
2019-03-19T19:00:29.189Z,6.72
2019-03-19T19:03:01.173Z,6.53
2019-03-19T19:05:34.448Z,6.53
2019-03-19T19:08:03.886Z,6.42
2019-03-19T19:10:31.498Z,6.33
2019-03-19T19:12:59.283Z,6.25
2019-03-19T19:15:28.499Z,6.11
2019-03-19T19:17:56.080Z,6.11
2019-03-19T19:20:25.865Z,6.04
2019-03-19T19:22:53.919Z,5.86
2019-03-19T19:25:24.174Z,5.82
2019-03-19T19:27:54.878Z,5.80
2019-03-19T19:30:22.883Z,5.80
2019-03-19T19:33:01.578Z,5.80
2019-03-19T19:35:22.286Z,5.81
2019-03-19T19:37:54.766Z,5.81
2019-03-19T19:40:22.805Z,5.82
2019-03-19T19:42:50.451Z,5.79
2019-03-19T19:45:18.421Z,5.78
2019-03-19T19:47:46.350Z,5.79
2019-03-19T19:50:15.018Z,5.79
2019-03-19T19:52:42.991Z,5.88
2019-03-19T19:55:10.644Z,5.88
2019-03-19T19:57:40.198Z,5.91
2019-03-19T20:00:08.299Z,5.90
2019-03-19T20:02:40.948Z,5.84
2019-03-19T20:05:08.597Z,5.84
2019-03-19T20:07:38.558Z,5.64
2019-03-19T20:10:06.178Z,5.52
2019-03-19T20:12:33.829Z,5.46
2019-03-19T20:15:22.680Z,5.46
2019-03-19T20:20:43.571Z,5.20
2019-03-19T20:23:11.171Z,5.20
2019-03-19T20:25:57.640Z,5.09
2019-03-19T20:28:25.281Z,4.98
2019-03-19T20:30:57.072Z,4.87
2019-03-19T20:33:25.291Z,4.80
2019-03-19T20:35:55.724Z,4.64
2019-03-19T20:38:39.821Z,4.56
2019-03-19T20:41:07.375Z,4.56
2019-03-19T20:43:35.401Z,4.43
2019-03-19T20:46:05.052Z,4.39
2019-03-19T20:48:32.390Z,4.34
2019-03-19T20:51:04.072Z,4.32
2019-03-19T20:53:33.101Z,4.32
2019-03-19T20:56:06.822Z,4.31
2019-03-19T20:58:43.670Z,4.30
2019-03-19T21:01:08.933Z,4.23
2019-03-19T21:03:36.549Z,4.15
2019-03-19T21:06:22.949Z,4.06
2019-03-19T21:08:52.903Z,4.06
2019-03-19T21:11:39.269Z,3.95
2019-03-19T21:14:25.716Z,3.89
2019-03-19T21:17:12.110Z,3.89
2019-03-19T21:19:58.577Z,3.78
2019-03-19T21:22:45.039Z,3.77
2019-03-19T21:28:16.446Z,3.76
2019-03-19T21:33:38.884Z,3.88
2019-03-19T21:36:25.253Z,3.90
2019-03-19T21:39:34.623Z,3.91
2019-03-19T21:41:41.351Z,3.91
2019-03-19T21:44:27.816Z,3.87
2019-03-19T21:46:56.054Z,3.84
2019-03-19T21:49:45.026Z,3.84
2019-03-19T21:52:11.942Z,3.81
2019-03-19T21:54:58.324Z,3.74
2019-03-19T21:57:44.787Z,3.69
2019-03-19T22:00:31.162Z,3.62
2019-03-19T22:05:53.060Z,3.45
2019-03-19T22:08:41.396Z,3.38
2019-03-19T22:11:27.927Z,3.34
2019-03-19T22:14:14.713Z,3.31
2019-03-19T22:17:01.185Z,3.30
2019-03-19T22:22:23.608Z,3.25
2019-03-19T22:25:09.984Z,3.23
2019-03-19T22:27:56.461Z,3.23
2019-03-19T22:30:24.176Z,3.20
2019-03-19T22:33:10.631Z,3.14
2019-03-19T22:38:31.354Z,3.02
2019-03-19T22:41:17.765Z,3.01
2019-03-19T22:44:04.545Z,3.04
2019-03-19T22:49:37.447Z,3.02
2019-03-19T22:55:10.346Z,2.93
2019-03-19T22:57:38.079Z,2.93
2019-03-19T23:00:06.117Z,2.92
2019-03-19T23:02:33.926Z,2.92
2019-03-19T23:05:20.388Z,2.89
2019-03-19T23:07:48.288Z,2.86
2019-03-19T23:10:16.157Z,2.84
2019-03-19T23:12:44.267Z,2.83
2019-03-19T23:15:12.011Z,2.79
2019-03-19T23:17:40.060Z,2.79
2019-03-19T23:20:26.517Z,2.78
2019-03-19T23:22:57.034Z,2.76
2019-03-19T23:28:16.271Z,2.71
2019-03-19T23:31:02.971Z,2.69
2019-03-19T23:33:49.418Z,2.66
2019-03-19T23:36:37.313Z,2.63
2019-03-19T23:39:05.179Z,2.63
2019-03-19T23:41:53.614Z,2.56
2019-03-19T23:47:13.264Z,2.50
2019-03-19T23:52:16.231Z,2.46
2019-03-19T23:55:02.982Z,2.44
2019-03-19T23:57:49.441Z,2.41
